createdAt,value
2023-05-22T00:00:15.165Z,8.60
2023-05-22T00:01:51.720Z,7.03
2023-05-22T00:03:25.233Z,7.72
2023-05-22T00:04:58.728Z,6.82
2023-05-22T00:06:34.036Z,9.32
2023-05-22T00:08:11.775Z,8.38
2023-05-22T00:09:44.965Z,6.45
2023-05-22T00:11:18.182Z,7.07
2023-05-22T00:12:51.308Z,7.22
2023-05-22T00:14:24.604Z,6.65
2023-05-22T00:15:57.771Z,7.38
2023-05-22T00:17:33.961Z,6.53
2023-05-22T00:19:13.009Z,8.40
2023-05-22T00:20:46.460Z,7.90
2023-05-22T00:22:19.648Z,7.05
2023-05-22T00:23:52.798Z,7.82
2023-05-22T00:25:25.953Z,7.78
2023-05-22T00:26:59.354Z,9.52
2023-05-22T00:28:33.230Z,8.35
2023-05-22T00:30:07.892Z,6.85
2023-05-22T00:31:41.079Z,7.72
2023-05-22T00:33:15.994Z,7.80
2023-05-22T00:34:49.393Z,7.90
2023-05-22T00:36:22.848Z,7.70
2023-05-22T00:37:56.183Z,9.07
2023-05-22T00:39:29.394Z,6.50
2023-05-22T00:41:04.035Z,9.43
2023-05-22T00:44:10.179Z,7.75
2023-05-22T00:45:43.365Z,8.80
2023-05-22T00:47:16.471Z,7.43
2023-05-22T00:48:52.431Z,8.23
2023-05-22T00:50:25.897Z,6.95
2023-05-22T00:51:59.059Z,6.65
2023-05-22T00:53:32.528Z,7.57
2023-05-22T00:55:06.359Z,7.53
2023-05-22T00:56:40.000Z,7.45
2023-05-22T00:58:18.244Z,6.15
2023-05-22T00:59:50.861Z,9.07
2023-05-22T01:01:26.239Z,9.73
2023-05-22T01:02:59.379Z,9.13
2023-05-22T01:04:35.194Z,7.32
2023-05-22T01:06:08.685Z,7.97
2023-05-22T01:07:42.000Z,6.88
2023-05-22T01:09:15.713Z,8.43
2023-05-22T01:10:57.742Z,7.50
2023-05-22T01:12:43.979Z,6.43
2023-05-22T01:14:30.367Z,7.72
2023-05-22T01:16:29.753Z,7.22
2023-05-22T01:18:19.739Z,7.32
2023-05-22T01:20:09.752Z,8.48
2023-05-22T01:22:06.357Z,9.27
2023-05-22T01:24:25.613Z,7.25
2023-05-22T01:26:26.305Z,9.75
2023-05-22T01:28:34.249Z,10.38
2023-05-22T01:30:39.671Z,6.80
2023-05-22T01:32:18.009Z,6.10
2023-05-22T01:33:56.903Z,7.97
2023-05-22T01:35:32.201Z,9.50
2023-05-22T01:37:05.481Z,8.02
2023-05-22T01:38:39.131Z,10.40
2023-05-22T01:40:14.495Z,7.05
2023-05-22T01:41:48.298Z,9.10
2023-05-22T01:43:21.995Z,8.75
2023-05-22T01:44:54.255Z,8.45
2023-05-22T01:46:31.146Z,7.70
2023-05-22T01:48:05.719Z,8.93
2023-05-22T01:49:39.842Z,8.13
2023-05-22T01:51:21.251Z,8.48
2023-05-22T01:53:07.851Z,9.20
2023-05-22T01:54:50.256Z,7.22
2023-05-22T01:56:34.678Z,8.57
2023-05-22T01:58:25.873Z,7.30
2023-05-22T02:00:09.830Z,9.52
2023-05-22T02:01:56.154Z,9.50
2023-05-22T02:03:56.412Z,9.10
2023-05-22T02:05:52.821Z,6.90
2023-05-22T02:07:25.907Z,7.40
2023-05-22T02:09:01.016Z,11.18
2023-05-22T02:10:37.409Z,9.30
2023-05-22T02:12:12.006Z,8.68
2023-05-22T02:13:45.262Z,9.20
2023-05-22T02:15:19.308Z,8.90
2023-05-22T02:16:54.007Z,7.10
2023-05-22T02:18:29.417Z,8.98
2023-05-22T02:20:02.760Z,10.82
2023-05-22T02:21:37.229Z,8.30
2023-05-22T02:23:10.767Z,7.57
2023-05-22T02:24:48.160Z,8.02
2023-05-22T02:26:23.012Z,8.65
2023-05-22T02:27:56.364Z,8.23
2023-05-22T02:29:29.558Z,9.55
2023-05-22T02:31:03.828Z,9.15
2023-05-22T02:32:39.069Z,8.43
2023-05-22T02:34:12.244Z,7.55
2023-05-22T02:35:45.987Z,8.52
2023-05-22T02:37:18.318Z,8.52
2023-05-22T02:38:51.554Z,7.80
2023-05-22T02:40:24.843Z,8.18
2023-05-22T02:41:58.617Z,12.05
2023-05-22T02:43:31.779Z,8.18
2023-05-22T02:45:06.270Z,7.63
2023-05-22T02:46:40.657Z,7.90
2023-05-22T02:48:16.679Z,6.88
2023-05-22T02:49:50.685Z,9.82
2023-05-22T02:51:24.098Z,7.10
2023-05-22T02:52:57.305Z,8.10
2023-05-22T02:54:30.506Z,7.15
2023-05-22T02:56:03.756Z,8.63
2023-05-22T02:57:37.020Z,8.25
2023-05-22T02:59:10.235Z,9.57
2023-05-22T03:00:43.932Z,8.13
2023-05-22T03:02:17.713Z,7.45
2023-05-22T03:03:52.354Z,9.43
2023-05-22T03:05:25.654Z,6.90
2023-05-22T03:06:59.052Z,7.43
2023-05-22T03:08:32.098Z,8.07
2023-05-22T03:10:06.869Z,7.88
2023-05-22T03:11:39.167Z,8.25
2023-05-22T03:13:12.400Z,7.53
2023-05-22T03:14:45.829Z,7.38
2023-05-22T03:16:19.602Z,10.40
2023-05-22T03:17:54.291Z,9.75
2023-05-22T03:19:27.993Z,7.20
2023-05-22T03:21:01.245Z,9.05
2023-05-22T03:22:34.478Z,8.48
2023-05-22T03:24:09.039Z,7.15
2023-05-22T03:25:42.455Z,8.00
2023-05-22T03:27:17.484Z,7.78
2023-05-22T03:28:52.212Z,8.55
2023-05-22T03:30:37.984Z,8.23
2023-05-22T03:32:18.111Z,8.88
2023-05-22T03:33:52.478Z,8.18
2023-05-22T03:35:27.308Z,9.25
2023-05-22T03:38:34.106Z,7.63
2023-05-22T03:40:08.610Z,8.90
2023-05-22T03:43:15.415Z,8.65
2023-05-22T03:44:49.294Z,8.50
2023-05-22T03:46:21.999Z,11.23
2023-05-22T03:47:55.341Z,7.07
2023-05-22T03:49:30.657Z,8.13
2023-05-22T03:51:04.782Z,8.07
2023-05-22T03:52:39.969Z,10.05
2023-05-22T03:54:13.246Z,9.68
2023-05-22T03:55:48.383Z,12.35
2023-05-22T03:57:21.661Z,8.93
2023-05-22T03:58:54.870Z,10.20
2023-05-22T04:00:28.232Z,9.20
2023-05-22T04:02:01.952Z,11.00
2023-05-22T04:03:35.253Z,7.07
2023-05-22T04:05:10.849Z,8.57
2023-05-22T04:06:45.771Z,9.05
2023-05-22T04:08:19.819Z,7.65
2023-05-22T04:09:53.003Z,7.50
2023-05-22T04:11:26.869Z,8.48
2023-05-22T04:13:00.809Z,8.45
2023-05-22T04:14:34.655Z,8.27
2023-05-22T04:16:08.435Z,8.57
2023-05-22T04:17:42.325Z,8.55
2023-05-22T04:19:16.438Z,7.65
2023-05-22T04:20:51.701Z,10.05
2023-05-22T04:22:27.420Z,9.10
2023-05-22T04:24:01.123Z,8.90
2023-05-22T04:25:36.315Z,7.88
2023-05-22T04:27:09.960Z,9.25
2023-05-22T04:28:46.050Z,10.75
2023-05-22T04:30:19.247Z,9.32
2023-05-22T04:31:54.254Z,8.73
2023-05-22T04:35:03.872Z,7.05
2023-05-22T04:36:38.782Z,8.90
2023-05-22T04:38:13.295Z,9.18
2023-05-22T04:39:46.964Z,9.48
2023-05-22T04:41:21.204Z,8.60
2023-05-22T04:42:55.542Z,11.02
2023-05-22T04:44:30.447Z,8.88
2023-05-22T04:46:03.737Z,9.77
2023-05-22T04:47:38.260Z,8.93
2023-05-22T04:49:13.475Z,8.90
2023-05-22T04:50:47.230Z,8.43
2023-05-22T04:52:21.211Z,10.40
2023-05-22T04:54:14.807Z,10.10
2023-05-22T04:56:08.262Z,8.88
2023-05-22T04:58:00.655Z,9.50
2023-05-22T04:59:53.489Z,7.57
2023-05-22T05:01:27.739Z,9.27
2023-05-22T05:03:01.306Z,9.18
2023-05-22T05:04:34.127Z,9.55
2023-05-22T05:06:08.331Z,9.00
2023-05-22T05:07:41.961Z,9.13
2023-05-22T05:09:16.650Z,11.65
2023-05-22T05:13:55.198Z,8.52
2023-05-22T05:15:29.633Z,8.07
2023-05-22T05:17:03.098Z,9.85
2023-05-22T05:18:35.567Z,10.07
2023-05-22T05:20:10.421Z,11.38
2023-05-22T05:21:44.348Z,8.40
2023-05-22T05:23:17.572Z,8.38
2023-05-22T05:24:52.200Z,9.05
2023-05-22T05:26:26.934Z,10.00
2023-05-22T05:29:33.310Z,9.25
2023-05-22T05:31:11.733Z,11.57
2023-05-22T05:33:06.068Z,10.07
2023-05-22T05:34:59.330Z,11.23
2023-05-22T05:36:46.745Z,10.52
2023-05-22T05:38:20.544Z,10.70
2023-05-22T05:39:55.654Z,10.13
2023-05-22T05:41:29.054Z,11.10
2023-05-22T05:43:09.317Z,10.07
2023-05-22T05:44:42.807Z,10.00
2023-05-22T05:46:16.378Z,8.73
2023-05-22T05:47:49.525Z,9.15
2023-05-22T05:49:23.717Z,9.77
2023-05-22T05:50:57.125Z,9.55
2023-05-22T05:52:32.597Z,10.73
2023-05-22T05:54:07.833Z,10.45
2023-05-22T05:55:42.435Z,9.88
2023-05-22T05:57:16.415Z,11.45
2023-05-22T05:58:49.578Z,10.63
2023-05-22T06:00:54.703Z,9.68
2023-05-22T06:02:27.954Z,11.73
2023-05-22T06:04:05.354Z,9.57
2023-05-22T06:05:39.929Z,9.13
2023-05-22T06:07:50.443Z,10.50
2023-05-22T06:09:25.269Z,10.30
2023-05-22T06:11:22.442Z,13.75
2023-05-22T06:13:00.184Z,11.88
2023-05-22T06:14:33.415Z,11.38
2023-05-22T06:16:07.607Z,11.73
2023-05-22T06:17:41.818Z,11.30
2023-05-22T06:19:16.172Z,10.27
2023-05-22T06:20:49.927Z,10.15
2023-05-22T06:22:25.488Z,11.48
2023-05-22T06:23:58.868Z,10.98
2023-05-22T06:25:32.165Z,11.13
2023-05-22T06:27:07.654Z,10.95
2023-05-22T06:28:41.147Z,9.85
2023-05-22T06:30:18.442Z,10.00
2023-05-22T06:31:58.965Z,12.20
2023-05-22T06:33:34.320Z,9.88
2023-05-22T06:35:08.618Z,11.75
2023-05-22T06:36:42.221Z,10.88
2023-05-22T06:38:15.773Z,10.52
2023-05-22T06:39:50.006Z,11.48
2023-05-22T06:41:32.503Z,9.95
2023-05-22T06:43:07.249Z,10.88
2023-05-22T06:45:04.005Z,9.82
2023-05-22T06:46:44.996Z,10.98
2023-05-22T06:48:24.838Z,11.48
2023-05-22T06:50:10.344Z,11.52
2023-05-22T06:51:44.203Z,10.52
2023-05-22T06:53:19.345Z,9.90
2023-05-22T06:54:52.809Z,10.57
2023-05-22T06:58:07.683Z,10.93
2023-05-22T06:59:41.923Z,9.70
2023-05-22T07:01:38.148Z,10.48
2023-05-22T07:03:17.804Z,11.45
2023-05-22T07:05:20.171Z,10.18
2023-05-22T07:06:58.569Z,11.10
2023-05-22T07:08:31.747Z,9.35
2023-05-22T07:10:06.437Z,11.38
2023-05-22T07:11:39.663Z,10.27
2023-05-22T07:13:14.188Z,11.90
2023-05-22T07:14:47.412Z,10.02
2023-05-22T07:16:20.777Z,11.15
2023-05-22T07:17:54.344Z,9.73
2023-05-22T07:19:27.643Z,10.45
2023-05-22T07:21:03.864Z,9.27
2023-05-22T07:22:37.104Z,10.82
2023-05-22T07:24:10.507Z,9.60
2023-05-22T07:25:47.393Z,12.30
2023-05-22T07:27:22.204Z,9.27
2023-05-22T07:28:57.767Z,9.32
2023-05-22T07:30:31.370Z,10.23
2023-05-22T07:32:04.915Z,10.40
2023-05-22T07:33:38.092Z,11.00
2023-05-22T07:35:11.822Z,8.93
2023-05-22T07:38:19.301Z,9.18
2023-05-22T07:40:02.027Z,10.63
2023-05-22T07:41:36.713Z,9.35
2023-05-22T07:43:10.002Z,9.35
2023-05-22T07:44:44.468Z,8.93
2023-05-22T07:46:18.439Z,8.98
2023-05-22T07:48:01.981Z,8.85
2023-05-22T07:49:36.319Z,10.05
2023-05-22T07:51:09.546Z,9.68
2023-05-22T07:52:42.761Z,9.68
2023-05-22T07:54:16.166Z,9.75
2023-05-22T07:55:51.912Z,9.55
2023-05-22T07:57:25.173Z,10.40
2023-05-22T07:59:01.052Z,10.13
2023-05-22T08:00:35.541Z,10.25
2023-05-22T08:02:09.952Z,10.07
2023-05-22T08:03:43.394Z,8.77
2023-05-22T08:05:16.888Z,11.02
2023-05-22T08:06:50.885Z,11.23
2023-05-22T08:08:24.253Z,10.43
2023-05-22T08:09:57.485Z,9.90
2023-05-22T08:11:30.730Z,10.10
2023-05-22T08:13:06.167Z,9.93
2023-05-22T08:14:39.310Z,9.65
2023-05-22T08:16:13.807Z,9.25
2023-05-22T08:17:47.477Z,10.27
2023-05-22T08:19:20.756Z,9.63
2023-05-22T08:20:55.052Z,12.85
2023-05-22T08:22:31.003Z,10.43
2023-05-22T08:24:04.429Z,9.68
2023-05-22T08:25:37.961Z,10.57
2023-05-22T08:27:11.394Z,11.38
2023-05-22T08:28:44.937Z,10.07
2023-05-22T08:30:18.150Z,11.50
2023-05-22T08:31:53.904Z,11.25
2023-05-22T08:33:27.677Z,9.25
2023-05-22T08:35:00.819Z,10.32
2023-05-22T08:36:35.444Z,11.30
2023-05-22T08:39:41.637Z,10.65
2023-05-22T08:41:15.916Z,10.20
2023-05-22T08:42:51.449Z,10.80
2023-05-22T08:44:25.121Z,9.88
2023-05-22T08:46:04.692Z,10.27
2023-05-22T08:47:41.970Z,10.18
2023-05-22T08:49:15.577Z,9.77
2023-05-22T08:50:57.186Z,9.95
2023-05-22T08:52:36.785Z,10.45
2023-05-22T08:54:10.993Z,10.38
2023-05-22T08:55:44.350Z,10.20
2023-05-22T08:57:18.812Z,9.80
2023-05-22T08:58:55.081Z,11.00
2023-05-22T09:00:29.580Z,9.82
2023-05-22T09:03:41.671Z,8.57
2023-05-22T09:05:16.841Z,11.23
2023-05-22T09:06:50.467Z,9.73
2023-05-22T09:08:24.071Z,9.32
2023-05-22T09:09:57.772Z,9.40
2023-05-22T09:11:31.212Z,9.80
2023-05-22T09:13:07.772Z,11.52
2023-05-22T09:14:41.864Z,10.13
2023-05-22T09:16:15.727Z,10.95
2023-05-22T09:17:48.934Z,10.18
2023-05-22T09:19:23.563Z,9.27
2023-05-22T09:20:59.846Z,9.88
2023-05-22T09:22:38.073Z,10.35
2023-05-22T09:24:11.947Z,9.30
2023-05-22T09:25:46.387Z,10.93
2023-05-22T09:27:24.008Z,10.68
2023-05-22T09:28:57.992Z,10.63
2023-05-22T09:30:36.131Z,11.20
2023-05-22T09:32:15.160Z,10.32
2023-05-22T09:33:49.354Z,10.95
2023-05-22T09:35:27.961Z,10.25
2023-05-22T09:37:03.974Z,9.80
2023-05-22T09:38:37.641Z,10.80
2023-05-22T09:40:14.695Z,10.27
2023-05-22T09:41:47.803Z,11.07
2023-05-22T09:43:22.799Z,11.98
2023-05-22T09:44:56.031Z,10.13
2023-05-22T09:46:29.426Z,9.80
2023-05-22T09:48:02.708Z,10.38
2023-05-22T09:49:38.635Z,9.75
2023-05-22T09:51:14.582Z,10.15
2023-05-22T09:52:51.790Z,11.25
2023-05-22T09:54:28.337Z,9.77
2023-05-22T09:56:06.322Z,10.10
2023-05-22T09:57:44.933Z,13.13
2023-05-22T09:59:23.738Z,11.05
2023-05-22T10:00:58.979Z,11.32
2023-05-22T10:02:34.081Z,10.55
2023-05-22T10:04:12.575Z,10.07
2023-05-22T10:05:51.172Z,10.05
2023-05-22T10:07:31.225Z,10.52
2023-05-22T10:09:10.656Z,10.27
2023-05-22T10:10:46.860Z,10.50
2023-05-22T10:12:24.806Z,10.02
2023-05-22T10:14:00.358Z,10.45
2023-05-22T10:15:34.082Z,10.07
2023-05-22T10:17:07.919Z,11.02
2023-05-22T10:18:42.907Z,10.13
2023-05-22T10:20:17.074Z,12.70
2023-05-22T10:21:51.944Z,11.30
2023-05-22T10:23:27.838Z,12.35
2023-05-22T10:25:03.216Z,10.57
2023-05-22T10:26:36.521Z,11.52
2023-05-22T10:28:11.276Z,11.20
2023-05-22T10:29:55.061Z,11.93
2023-05-22T10:31:42.477Z,10.82
2023-05-22T10:33:30.926Z,14.02
2023-05-22T10:35:17.290Z,12.52
2023-05-22T10:37:18.195Z,12.88
2023-05-22T10:40:38.969Z,11.35
2023-05-22T10:42:15.771Z,12.40
2023-05-22T10:43:51.549Z,13.80
2023-05-22T10:45:29.214Z,15.05
2023-05-22T10:47:11.633Z,14.38
2023-05-22T10:48:47.394Z,14.40
2023-05-22T10:50:22.707Z,15.25
2023-05-22T10:52:01.039Z,18.38
2023-05-22T10:53:35.462Z,16.38
2023-05-22T10:55:11.847Z,16.02
2023-05-22T10:56:46.844Z,15.32
2023-05-22T10:58:28.190Z,17.65
2023-05-22T11:00:10.489Z,21.38
2023-05-22T11:01:44.100Z,22.20
2023-05-22T11:03:22.940Z,21.52
2023-05-22T11:04:56.175Z,20.77
2023-05-22T11:06:38.120Z,21.98
2023-05-22T11:08:38.858Z,20.77
2023-05-22T11:10:13.462Z,26.27
2023-05-22T11:11:46.950Z,22.05
2023-05-22T11:13:20.371Z,25.23
2023-05-22T11:14:56.172Z,27.10
2023-05-22T11:16:33.382Z,27.40
2023-05-22T11:18:07.736Z,30.08
2023-05-22T11:19:42.593Z,28.55
2023-05-22T11:21:16.722Z,28.42
2023-05-22T11:22:56.664Z,27.42
2023-05-22T11:24:34.891Z,28.55
2023-05-22T11:26:26.302Z,27.65
2023-05-22T11:28:05.647Z,30.10
2023-05-22T11:29:40.014Z,32.97
2023-05-22T11:32:48.117Z,27.50
2023-05-22T11:34:22.367Z,32.33
2023-05-22T11:35:56.099Z,27.92
2023-05-22T11:37:29.693Z,29.20
2023-05-22T11:39:02.895Z,29.48
2023-05-22T11:40:36.341Z,29.48
2023-05-22T11:42:10.844Z,27.42
2023-05-22T11:43:44.362Z,29.02
2023-05-22T11:45:18.573Z,28.30
2023-05-22T11:46:51.915Z,30.75
2023-05-22T11:48:25.167Z,33.30
2023-05-22T11:49:59.768Z,31.58
2023-05-22T11:51:33.254Z,31.63
2023-05-22T11:53:06.668Z,29.55
2023-05-22T11:54:39.928Z,30.10
2023-05-22T11:56:13.213Z,30.45
2023-05-22T11:57:48.288Z,30.10
2023-05-22T11:59:23.297Z,28.65
2023-05-22T12:01:00.683Z,27.83
2023-05-22T12:02:34.004Z,30.25
2023-05-22T12:04:07.284Z,30.30
2023-05-22T12:05:40.809Z,29.48
2023-05-22T12:07:14.267Z,27.80
2023-05-22T12:08:47.875Z,29.50
2023-05-22T12:10:21.342Z,27.92
2023-05-22T12:11:57.843Z,28.92
2023-05-22T12:13:32.954Z,31.38
2023-05-22T12:15:08.017Z,33.70
2023-05-22T12:16:41.745Z,31.70
2023-05-22T12:18:15.041Z,29.27
2023-05-22T12:19:49.233Z,28.58
2023-05-22T12:21:23.175Z,28.80
2023-05-22T12:22:58.866Z,34.65
2023-05-22T12:24:40.688Z,27.85
2023-05-22T12:26:14.116Z,28.27
2023-05-22T12:27:48.507Z,29.77
2023-05-22T12:29:25.275Z,30.38
2023-05-22T12:30:59.173Z,28.80
2023-05-22T12:32:32.855Z,25.83
2023-05-22T12:34:08.904Z,29.15
2023-05-22T12:35:43.026Z,28.00
2023-05-22T12:37:22.119Z,26.25
2023-05-22T12:38:59.147Z,25.98
2023-05-22T12:40:32.269Z,25.40
2023-05-22T12:42:05.889Z,26.10
2023-05-22T12:43:39.281Z,26.88
2023-05-22T12:45:14.258Z,25.83
2023-05-22T12:46:47.987Z,25.05
2023-05-22T12:48:21.574Z,26.00
2023-05-22T12:49:54.866Z,26.13
2023-05-22T12:51:30.188Z,26.33
2023-05-22T12:53:03.714Z,24.70
2023-05-22T12:54:37.313Z,29.38
2023-05-22T12:56:10.568Z,25.98
2023-05-22T12:57:44.006Z,24.05
2023-05-22T12:59:18.824Z,24.92
2023-05-22T13:00:55.417Z,23.92
2023-05-22T13:02:28.730Z,24.48
2023-05-22T13:04:01.908Z,23.63
2023-05-22T13:05:35.355Z,24.42
2023-05-22T13:07:08.465Z,23.63
2023-05-22T13:08:41.649Z,27.90
2023-05-22T13:10:14.887Z,23.17
2023-05-22T13:11:48.658Z,22.02
2023-05-22T13:13:22.197Z,23.02
2023-05-22T13:14:55.341Z,22.67
2023-05-22T13:16:32.262Z,22.33
2023-05-22T13:18:05.960Z,23.75
2023-05-22T13:19:39.143Z,22.92
2023-05-22T13:21:13.461Z,23.65
2023-05-22T13:22:47.742Z,21.40
2023-05-22T13:24:20.942Z,22.25
2023-05-22T13:25:54.137Z,21.20
2023-05-22T13:27:28.085Z,21.50
2023-05-22T13:29:01.310Z,23.10
2023-05-22T13:30:35.033Z,22.23
2023-05-22T13:32:09.629Z,22.83
2023-05-22T13:33:42.974Z,23.35
2023-05-22T13:35:16.138Z,23.55
2023-05-22T13:36:49.302Z,22.73
2023-05-22T13:38:22.665Z,21.75
2023-05-22T13:39:55.901Z,20.52
2023-05-22T13:41:29.222Z,21.80
2023-05-22T13:43:03.020Z,22.33
2023-05-22T13:44:36.125Z,20.58
2023-05-22T13:46:09.315Z,22.38
2023-05-22T13:47:44.458Z,23.48
2023-05-22T13:49:17.673Z,20.95
2023-05-22T13:50:50.949Z,21.65
2023-05-22T13:52:24.960Z,25.38
2023-05-22T13:53:58.341Z,22.17
2023-05-22T13:55:31.661Z,20.85
2023-05-22T13:57:05.815Z,26.08
2023-05-22T13:58:39.021Z,19.58
2023-05-22T14:00:14.643Z,20.08
2023-05-22T14:01:47.982Z,18.80
2023-05-22T14:03:22.792Z,20.02
2023-05-22T14:04:56.279Z,20.65
2023-05-22T14:06:29.643Z,22.23
2023-05-22T14:08:02.921Z,19.88
2023-05-22T14:09:36.190Z,19.35
2023-05-22T14:11:09.819Z,19.80
2023-05-22T14:12:43.131Z,18.30
2023-05-22T14:14:16.569Z,19.70
2023-05-22T14:15:50.051Z,18.95
2023-05-22T14:17:23.342Z,18.13
2023-05-22T14:19:00.120Z,18.10
2023-05-22T14:20:33.485Z,19.10
2023-05-22T14:22:06.913Z,20.60
2023-05-22T14:23:40.319Z,17.85
2023-05-22T14:25:13.745Z,17.48
2023-05-22T14:26:46.998Z,17.35
2023-05-22T14:28:20.410Z,18.42
2023-05-22T14:29:53.627Z,19.88
2023-05-22T14:31:29.854Z,16.48
2023-05-22T14:33:03.172Z,20.67
2023-05-22T14:34:37.616Z,19.50
2023-05-22T14:37:44.552Z,18.48
2023-05-22T14:39:17.690Z,17.05
2023-05-22T14:40:51.251Z,19.13
2023-05-22T14:42:24.468Z,17.55
2023-05-22T14:43:57.636Z,17.88
2023-05-22T14:45:31.079Z,19.73
2023-05-22T14:47:04.181Z,17.38
2023-05-22T14:48:37.310Z,18.98
2023-05-22T14:50:19.102Z,17.45
2023-05-22T14:51:55.725Z,18.95
2023-05-22T14:53:28.852Z,18.95
2023-05-22T14:55:02.247Z,19.73
2023-05-22T14:56:35.434Z,16.42
2023-05-22T14:58:08.608Z,16.77
2023-05-22T14:59:41.789Z,16.33
2023-05-22T15:01:14.974Z,15.93
2023-05-22T15:02:48.202Z,16.48
2023-05-22T15:04:22.551Z,16.25
2023-05-22T15:05:57.433Z,16.17
2023-05-22T15:07:43.231Z,16.05
2023-05-22T15:09:18.381Z,13.80
2023-05-22T15:10:51.772Z,6.70
2023-05-22T15:12:24.993Z,5.60
2023-05-22T15:13:58.191Z,5.45
2023-05-22T15:15:31.402Z,5.15
2023-05-22T15:17:04.740Z,5.25
2023-05-22T15:18:37.919Z,6.18
2023-05-22T15:20:12.783Z,5.40
2023-05-22T15:21:47.249Z,5.35
2023-05-22T15:23:24.959Z,5.03
2023-05-22T15:25:06.288Z,7.40
2023-05-22T15:26:39.593Z,5.40
2023-05-22T15:28:12.839Z,5.07
2023-05-22T15:29:46.228Z,5.88
2023-05-22T15:31:20.167Z,4.88
2023-05-22T15:32:53.717Z,5.07
2023-05-22T15:34:27.234Z,6.72
2023-05-22T15:36:00.473Z,4.82
2023-05-22T15:37:36.369Z,6.45
2023-05-22T15:39:09.642Z,5.57
2023-05-22T15:40:43.096Z,5.00
2023-05-22T15:42:16.383Z,7.32
2023-05-22T15:43:49.530Z,5.60
2023-05-22T15:45:22.869Z,4.95
2023-05-22T15:46:56.532Z,4.78
2023-05-22T15:48:32.224Z,5.13
2023-05-22T15:50:06.978Z,5.20
2023-05-22T15:51:40.590Z,5.15
2023-05-22T15:53:18.716Z,4.85
2023-05-22T15:54:52.016Z,4.95
2023-05-22T15:56:25.875Z,4.78
2023-05-22T15:57:59.512Z,5.22
2023-05-22T15:59:33.004Z,5.38
2023-05-22T16:01:08.021Z,4.80
2023-05-22T16:02:41.232Z,5.68
2023-05-22T16:04:14.574Z,5.47
2023-05-22T16:05:48.311Z,5.53
2023-05-22T16:07:21.748Z,5.50
2023-05-22T16:08:56.242Z,6.25
2023-05-22T16:12:03.017Z,4.63
2023-05-22T16:13:36.252Z,5.00
2023-05-22T16:15:10.972Z,6.57
2023-05-22T16:16:44.571Z,4.50
2023-05-22T16:18:18.518Z,6.25
2023-05-22T16:19:52.157Z,5.30
2023-05-22T16:21:25.384Z,6.65
2023-05-22T16:22:58.645Z,5.75
2023-05-22T16:24:33.328Z,5.72
2023-05-22T16:27:39.660Z,6.15
2023-05-22T16:29:13.070Z,6.63
2023-05-22T16:30:46.293Z,7.55
2023-05-22T16:32:19.528Z,7.00
2023-05-22T16:33:53.180Z,7.10
2023-05-22T16:35:26.735Z,6.63
2023-05-22T16:36:59.986Z,7.22
2023-05-22T16:38:36.408Z,7.57
2023-05-22T16:40:13.107Z,8.13
2023-05-22T16:41:46.326Z,7.55
2023-05-22T16:43:22.368Z,9.68
2023-05-22T16:44:55.692Z,9.48
2023-05-22T16:46:28.899Z,7.05
2023-05-22T16:48:07.655Z,6.28
2023-05-22T16:49:41.245Z,6.82
2023-05-22T16:51:14.661Z,5.75
2023-05-22T16:52:47.857Z,6.07
2023-05-22T16:54:21.488Z,6.35
2023-05-22T16:55:56.368Z,5.35
2023-05-22T16:57:29.676Z,5.55
2023-05-22T16:59:03.409Z,7.82
2023-05-22T17:00:37.721Z,5.68
2023-05-22T17:02:11.523Z,6.57
2023-05-22T17:03:45.102Z,6.40
2023-05-22T17:05:18.299Z,6.22
2023-05-22T17:06:53.597Z,6.95
2023-05-22T17:08:28.264Z,5.80
2023-05-22T17:10:01.996Z,6.78
2023-05-22T17:11:36.992Z,5.50
2023-05-22T17:13:12.598Z,5.93
2023-05-22T17:14:45.918Z,5.95
2023-05-22T17:16:19.231Z,8.75
2023-05-22T17:17:52.597Z,5.90
2023-05-22T17:19:26.466Z,6.70
2023-05-22T17:21:00.261Z,6.68
2023-05-22T17:22:33.782Z,8.00
2023-05-22T17:24:11.180Z,10.48
2023-05-22T17:25:46.676Z,10.10
2023-05-22T17:27:34.905Z,7.85
2023-05-22T17:29:10.774Z,9.88
2023-05-22T17:30:45.122Z,26.42
2023-05-22T17:32:18.324Z,16.85
2023-05-22T17:33:51.674Z,19.00
2023-05-22T17:35:24.871Z,14.98
2023-05-22T17:36:59.466Z,17.70
2023-05-22T17:38:32.777Z,25.27
2023-05-22T17:40:07.548Z,23.40
2023-05-22T17:41:40.693Z,17.58
2023-05-22T17:43:18.897Z,15.05
2023-05-22T17:44:52.116Z,15.55
2023-05-22T17:46:26.482Z,12.18
2023-05-22T17:49:33.020Z,11.77
2023-05-22T17:51:06.313Z,9.93
2023-05-22T17:52:40.873Z,9.35
2023-05-22T17:54:16.265Z,9.80
2023-05-22T17:55:52.225Z,8.55
2023-05-22T17:57:26.115Z,9.05
2023-05-22T17:59:01.271Z,8.38
2023-05-22T18:00:34.636Z,8.52
2023-05-22T18:02:08.779Z,8.48
2023-05-22T18:03:42.218Z,8.13
2023-05-22T18:05:15.723Z,9.35
2023-05-22T18:06:49.375Z,8.90
2023-05-22T18:08:25.979Z,8.77
2023-05-22T18:10:05.221Z,7.96
2023-05-22T18:11:38.546Z,7.80
2023-05-22T18:13:12.472Z,7.93
2023-05-22T18:14:47.696Z,8.27
2023-05-22T18:16:21.258Z,8.35
2023-05-22T18:17:55.003Z,7.57
2023-05-22T18:19:31.311Z,7.93
2023-05-22T18:21:05.003Z,8.90
2023-05-22T18:22:40.350Z,7.90
2023-05-22T18:24:14.191Z,8.65
2023-05-22T18:25:47.484Z,8.07
2023-05-22T18:27:20.661Z,8.00
2023-05-22T18:28:54.100Z,9.27
2023-05-22T18:30:27.853Z,9.13
2023-05-22T18:32:01.201Z,10.07
2023-05-22T18:33:34.729Z,9.73
2023-05-22T18:35:09.150Z,9.48
2023-05-22T18:36:42.387Z,9.52
2023-05-22T18:38:15.784Z,10.10
2023-05-22T18:39:49.210Z,9.40
2023-05-22T18:41:22.543Z,8.60
2023-05-22T18:42:56.229Z,8.98
2023-05-22T18:44:29.609Z,8.68
2023-05-22T18:46:04.379Z,9.45
2023-05-22T18:47:37.688Z,8.52
2023-05-22T18:49:10.933Z,8.95
2023-05-22T18:50:44.448Z,8.73
2023-05-22T18:52:17.760Z,8.70
2023-05-22T18:53:52.064Z,8.10
2023-05-22T18:55:28.742Z,8.52
2023-05-22T18:57:02.143Z,7.50
2023-05-22T18:58:37.546Z,8.90
2023-05-22T19:00:12.150Z,8.10
2023-05-22T19:03:20.274Z,7.50
2023-05-22T19:04:53.821Z,7.72
2023-05-22T19:06:27.153Z,8.60
2023-05-22T19:08:00.364Z,9.82
2023-05-22T19:09:33.681Z,9.02
2023-05-22T19:11:08.437Z,8.38
2023-05-22T19:12:42.216Z,9.18
2023-05-22T19:14:15.743Z,8.63
2023-05-22T19:15:50.721Z,7.95
2023-05-22T19:17:26.039Z,8.35
2023-05-22T19:18:59.506Z,8.73
2023-05-22T19:20:33.124Z,7.65
2023-05-22T19:22:06.889Z,8.20
2023-05-22T19:23:40.217Z,8.43
2023-05-22T19:25:13.621Z,8.05
2023-05-22T19:26:47.000Z,8.75
2023-05-22T19:28:20.588Z,8.05
2023-05-22T19:29:53.882Z,8.50
2023-05-22T19:31:28.287Z,9.32
2023-05-22T19:33:03.155Z,9.25
2023-05-22T19:34:36.910Z,8.32
2023-05-22T19:36:13.434Z,8.13
2023-05-22T19:37:46.726Z,8.57
2023-05-22T19:39:19.999Z,7.28
2023-05-22T19:40:53.289Z,10.32
2023-05-22T19:42:27.001Z,8.20
2023-05-22T19:44:00.564Z,9.23
2023-05-22T19:45:34.100Z,9.40
2023-05-22T19:47:08.047Z,8.40
2023-05-22T19:48:42.526Z,7.40
2023-05-22T19:50:15.809Z,8.32
2023-05-22T19:51:49.120Z,8.23
2023-05-22T19:53:22.421Z,9.45
2023-05-22T19:54:56.011Z,9.70
2023-05-22T19:56:30.189Z,14.15
2023-05-22T19:58:03.533Z,9.57
2023-05-22T19:59:37.053Z,9.80
2023-05-22T20:01:10.478Z,8.75
2023-05-22T20:02:43.887Z,8.15
2023-05-22T20:04:18.504Z,9.00
2023-05-22T20:05:53.976Z,8.15
2023-05-22T20:07:27.323Z,9.88
2023-05-22T20:09:01.598Z,11.05
2023-05-22T20:10:34.851Z,7.30
2023-05-22T20:12:09.240Z,8.50
2023-05-22T20:13:42.483Z,8.45
2023-05-22T20:15:17.693Z,10.48
2023-05-22T20:16:51.011Z,9.27
2023-05-22T20:18:24.797Z,10.23
2023-05-22T20:19:59.813Z,8.30
2023-05-22T20:21:33.480Z,8.20
2023-05-22T20:23:06.749Z,8.88
2023-05-22T20:24:40.289Z,9.98
2023-05-22T20:26:13.609Z,8.93
2023-05-22T20:27:47.000Z,8.10
2023-05-22T20:29:20.700Z,9.93
2023-05-22T20:30:55.076Z,9.60
2023-05-22T20:32:39.003Z,8.02
2023-05-22T20:34:12.416Z,7.95
2023-05-22T20:35:49.877Z,9.50
2023-05-22T20:37:27.578Z,8.85
2023-05-22T20:39:01.206Z,8.85
2023-05-22T20:40:34.448Z,10.52
2023-05-22T20:42:08.351Z,10.50
2023-05-22T20:43:43.895Z,9.38
2023-05-22T20:45:17.636Z,8.65
2023-05-22T20:46:51.685Z,8.73
2023-05-22T20:48:25.249Z,9.48
2023-05-22T20:49:58.635Z,9.05
2023-05-22T20:51:33.447Z,8.60
2023-05-22T20:53:08.396Z,10.73
2023-05-22T20:54:42.080Z,8.48
2023-05-22T20:56:15.486Z,8.13
2023-05-22T20:57:48.707Z,9.73
2023-05-22T20:59:24.498Z,8.70
2023-05-22T21:00:57.767Z,9.55
2023-05-22T21:02:31.399Z,8.93
2023-05-22T21:04:04.946Z,9.38
2023-05-22T21:05:38.301Z,9.35
2023-05-22T21:07:13.569Z,8.02
2023-05-22T21:08:47.099Z,8.15
2023-05-22T21:10:20.325Z,9.65
2023-05-22T21:11:53.532Z,9.10
2023-05-22T21:13:28.816Z,9.43
2023-05-22T21:15:02.054Z,9.13
2023-05-22T21:16:39.094Z,8.73
2023-05-22T21:18:13.014Z,8.88
2023-05-22T21:19:46.384Z,9.30